Mount Judea, Arkansas
Current Conditions -  °F | °C
As of 6:53 AM on Tuesday 21 Oct 2014 (Local Time) from KHRO Reporting Station
Moderate Fog Moderate Fog  
Wind Chill: 52°   Ceiling: Unl
Heat Index: 52°   Visibility: 0.5mi
Dew Point: 52°   Wind: 3mph
Humidity: 100%   Direction: 260°W
Pressure: 30.11"   Gusts: NA
Location:  35.92°N, 93.06°W
Report Text: KHRO 211153Z AUTO 26003KT 1/2SM FG CLR 11/11 A3011 RMK AO2 SLP192 T01110111 10144 20106 50004
Loading
Personal Weather Stations






























Interactive Weather Map
Tropical Storm Tracking
New forecast layout! Learn more

10-Day Weather Forecast

Advertisements
Track Severe Weather on mobile